Torrent, Spain
Current Conditions -  °F | °C
As of 7:30 PM on Thursday 30 Oct 2014 (Local Time) from LEVC Reporting Station
Clear Clear  
Wind Chill: 20°   Ceiling: Unl
Heat Index: 20°   Visibility: 6mi
Dew Point: 17°   Wind: 1mph
Humidity: 83%   Direction: NA
Pressure: 30.21"   Gusts: NA
Location:  39.44°N, 0.47°W
Report Text: LEVC 301830Z VRB01KT 9000 NSC 20/17 Q1023 NOSIG
Loading
Personal Weather Stations






























Interactive Weather Map
Tropical Storm Tracking
New forecast layout! Learn more

10-Day Weather Forecast

Advertisements
Track Severe Weather on mobile